Time;durP1;ratioP1;P1;durP2;ratioP2;P2;SDS_P1;SDS_P2;PMS_P1;PMS_P2;Temp;Humidity;BMP_temperature;BMP_pressure;BME280_temperature;BME280_humidity;BME280_pressure;Samples;Min_cycle;Max_cycle;Signal;HPM_P1;HPM_P2
2022/02/09 00:01:10;;;;;;;13.18;1.17;;;;;;;;;;4976412;28;20157;-69
2022/02/09 00:03:33;;;;;;;5.90;1.20;;;;;;;;;;4975639;28;20117;-69
2022/02/09 00:06:04;;;;;;;6.30;1.48;;;;;;;;;;4976345;28;20031;-69
2022/02/09 00:08:30;;;;;;;3.85;1.38;;;;;;;;;;4975915;28;20027;-69
2022/02/09 00:11:02;;;;;;;5.10;1.23;;;;;;;;;;4974459;28;20085;-69
2022/02/09 00:13:56;;;;;;;6.40;1.33;;;;;;;;;;4976287;28;20014;-69
2022/02/09 00:17:18;;;;;;;;;;;;;;;;;;4976641;28;20027;-69
2022/02/09 00:19:28;;;;;;;4.05;1.23;;;;;;;;;;4970010;28;19921;-69
2022/02/09 00:24:55;;;;;;;9.07;1.23;;;;;;;;;;4980573;28;20030;-69
2022/02/09 00:38:34;;;;;;;8.07;1.23;;;;;;;;;;4973676;28;20037;-70
2022/02/09 00:40:52;;;;;;;5.88;1.33;;;;;;;;;;4970266;28;20121;-69
2022/02/09 01:57:07;;;;;;;2.97;1.05;;;;;;;;;;4974667;28;20109;-71
2022/02/09 01:59:33;;;;;;;7.10;1.20;;;;;;;;;;4957202;28;20033;-70
2022/02/09 02:01:59;;;;;;;6.72;1.00;;;;;;;;;;4974534;28;20027;-70
2022/02/09 02:04:25;;;;;;;4.90;1.00;;;;;;;;;;4974446;28;20038;-70
2022/02/09 02:06:52;;;;;;;5.40;1.00;;;;;;;;;;4974517;28;20080;-69
2022/02/09 02:09:20;;;;;;;3.72;0.90;;;;;;;;;;4964653;28;20045;-68
2022/02/09 02:11:55;;;;;;;5.88;1.15;;;;;;;;;;4993041;28;20109;-69
2022/02/09 02:14:35;;;;;;;8.45;1.33;;;;;;;;;;4993400;28;20019;-68
2022/02/09 02:17:24;;;;;;;9.27;1.20;;;;;;;;;;4993491;28;20031;-68
2022/02/09 02:19:56;;;;;;;4.50;1.00;;;;;;;;;;4979424;28;20058;-67
2022/02/09 02:57:14;;;;;;;9.43;1.10;;;;;;;;;;4973418;28;20042;-68
2022/02/09 03:13:02;;;;;;;4.05;0.85;;;;;;;;;;4972857;28;20114;-67
2022/02/09 03:18:15;;;;;;;5.25;0.98;;;;;;;;;;4973539;28;20031;-68
2022/02/09 03:20:47;;;;;;;3.85;0.82;;;;;;;;;;4972779;28;20058;-67
2022/02/09 03:57:30;;;;;;;3.08;0.80;;;;;;;;;;4976847;28;20030;-68
2022/02/09 03:59:59;;;;;;;3.08;1.00;;;;;;;;;;4988645;28;20113;-69
2022/02/09 04:02:26;;;;;;;2.05;0.82;;;;;;;;;;4966722;28;20027;-68
2022/02/09 04:04:56;;;;;;;3.17;0.70;;;;;;;;;;4976704;28;20058;-68
2022/02/09 04:07:22;;;;;;;4.05;0.98;;;;;;;;;;4976646;28;20042;-68
2022/02/09 04:09:52;;;;;;;1.30;0.80;;;;;;;;;;4974999;28;20044;-66
2022/02/09 04:15:05;;;;;;;2.92;0.80;;;;;;;;;;4976262;28;20026;-67
2022/02/09 04:17:43;;;;;;;2.63;0.85;;;;;;;;;;4976113;28;20093;-67
2022/02/09 04:41:58;;;;;;;2.88;0.82;;;;;;;;;;4937494;28;20035;-67
2022/02/09 04:52:34;;;;;;;5.20;0.80;;;;;;;;;;5010672;28;20601;-68
2022/02/09 04:55:37;;;;;;;2.95;0.80;;;;;;;;;;5014127;28;20072;-69
2022/02/09 04:58:17;;;;;;;6.93;1.20;;;;;;;;;;5008845;28;20425;-68
2022/02/09 05:28:22;;;;;;;6.00;1.08;;;;;;;;;;5014058;28;20029;-69
2022/02/09 05:30:48;;;;;;;8.82;1.15;;;;;;;;;;5002503;28;20200;-69
2022/02/09 05:33:15;;;;;;;3.38;1.10;;;;;;;;;;4994080;28;20032;-68
2022/02/09 05:35:44;;;;;;;10.45;0.98;;;;;;;;;;4976708;28;20026;-68
2022/02/09 05:38:11;;;;;;;7.25;1.10;;;;;;;;;;4993904;28;20109;-69
2022/02/09 05:40:37;;;;;;;11.05;1.15;;;;;;;;;;4994036;28;20034;-69
2022/02/09 05:43:03;;;;;;;6.80;1.17;;;;;;;;;;4976453;28;20026;-68
2022/02/09 05:45:43;;;;;;;3.03;0.90;;;;;;;;;;4994072;28;20025;-68
2022/02/09 05:53:28;;;;;;;7.10;1.08;;;;;;;;;;5014112;28;20032;-68
2022/02/09 05:58:47;;;;;;;6.68;1.20;;;;;;;;;;4986945;28;20029;-70
2022/02/09 06:01:14;;;;;;;7.32;1.33;;;;;;;;;;4993721;28;20382;-70
2022/02/09 06:03:40;;;;;;;11.80;1.50;;;;;;;;;;4992908;28;20023;-71
2022/02/09 06:06:06;;;;;;;7.95;1.20;;;;;;;;;;5000818;28;20018;-70
2022/02/09 06:08:32;;;;;;;3.35;0.90;;;;;;;;;;5000720;28;20374;-68
2022/02/09 06:11:23;;;;;;;5.38;1.00;;;;;;;;;;5003040;28;20030;-69
2022/02/09 06:13:58;;;;;;;5.95;1.08;;;;;;;;;;4990683;28;20389;-67
2022/02/09 06:21:35;;;;;;;5.82;1.08;;;;;;;;;;4993663;28;20042;-70
2022/02/09 06:24:01;;;;;;;5.45;1.10;;;;;;;;;;4975874;28;20042;-69
2022/02/09 06:26:27;;;;;;;5.18;0.90;;;;;;;;;;5012865;28;20118;-69
2022/02/09 06:28:53;;;;;;;6.55;1.00;;;;;;;;;;5013463;28;20477;-71
2022/02/09 06:31:19;;;;;;;2.50;0.88;;;;;;;;;;4995427;28;20129;-70
2022/02/09 06:33:46;;;;;;;2.30;0.90;;;;;;;;;;5009835;28;20022;-71
2022/02/09 06:36:14;;;;;;;5.85;0.88;;;;;;;;;;5007420;28;20022;-70
2022/02/09 06:38:40;;;;;;;8.45;0.98;;;;;;;;;;4993675;28;20030;-71
2022/02/09 06:41:09;;;;;;;5.57;1.00;;;;;;;;;;4993872;28;20068;-71
2022/02/09 06:43:36;;;;;;;13.73;0.95;;;;;;;;;;4993615;28;20022;-69
2022/02/09 06:46:03;;;;;;;5.72;1.30;;;;;;;;;;4993219;28;20033;-70
2022/02/09 06:48:30;;;;;;;3.45;0.98;;;;;;;;;;4983041;28;20748;-70
2022/02/09 06:51:04;;;;;;;6.75;1.20;;;;;;;;;;4992759;28;20121;-68
2022/02/09 06:53:36;;;;;;;13.85;1.48;;;;;;;;;;4968325;28;20118;-70
2022/02/09 06:56:03;;;;;;;8.87;1.17;;;;;;;;;;4960832;28;20102;-72
2022/02/09 07:01:03;;;;;;;13.63;1.02;;;;;;;;;;4968338;28;20031;-71
2022/02/09 07:03:29;;;;;;;4.15;1.00;;;;;;;;;;4962382;28;20207;-75
2022/02/09 07:05:55;;;;;;;4.85;0.90;;;;;;;;;;4962057;28;20499;-71
2022/02/09 07:08:21;;;;;;;11.23;1.20;;;;;;;;;;4967419;28;20027;-68
2022/02/09 07:10:47;;;;;;;6.65;1.20;;;;;;;;;;4950225;28;20050;-69
2022/02/09 07:13:13;;;;;;;3.15;0.98;;;;;;;;;;4973965;28;20059;-72
2022/02/09 07:15:44;;;;;;;7.40;1.50;;;;;;;;;;4956933;28;20028;-71
2022/02/09 07:18:13;;;;;;;13.93;1.35;;;;;;;;;;4947363;28;20027;-79
2022/02/09 07:23:21;;;;;;;13.25;1.38;;;;;;;;;;4959272;29;20026;-75
2022/02/09 07:26:00;;;;;;;13.85;1.23;;;;;;;;;;4976354;28;20033;-77
2022/02/09 07:28:25;;;;;;;5.38;1.20;;;;;;;;;;4978423;28;20027;-79
2022/02/09 07:30:51;;;;;;;4.63;1.08;;;;;;;;;;4957936;28;20376;-72
2022/02/09 07:33:18;;;;;;;14.00;1.20;;;;;;;;;;4950217;28;20059;-79
2022/02/09 07:35:44;;;;;;;5.47;1.08;;;;;;;;;;4963270;28;20054;-79
2022/02/09 07:38:10;;;;;;;10.50;1.30;;;;;;;;;;4978025;28;20035;-80
2022/02/09 07:40:38;;;;;;;10.98;1.35;;;;;;;;;;4966294;28;20054;-83
2022/02/09 07:43:11;;;;;;;10.55;1.70;;;;;;;;;;4972630;28;20067;-77
2022/02/09 07:48:38;;;;;;;7.75;1.27;;;;;;;;;;4968238;28;20070;-80
2022/02/09 07:51:15;;;;;;;11.10;1.45;;;;;;;;;;4968876;28;20101;-76
2022/02/09 07:53:58;;;;;;;21.50;1.42;;;;;;;;;;4984030;28;20109;-80
2022/02/09 07:56:25;;;;;;;22.75;2.13;;;;;;;;;;4989241;28;20101;-80
2022/02/09 07:58:51;;;;;;;9.57;1.50;;;;;;;;;;4997437;28;20107;-80
2022/02/09 08:01:17;;;;;;;5.72;1.33;;;;;;;;;;4986546;28;20463;-71
2022/02/09 08:03:44;;;;;;;10.73;1.20;;;;;;;;;;4994627;28;20053;-77
2022/02/09 08:06:11;;;;;;;7.00;1.55;;;;;;;;;;4977494;28;20521;-76
2022/02/09 08:08:39;;;;;;;9.30;1.95;;;;;;;;;;4991679;28;20044;-70
2022/02/09 08:30:21;;;;;;;4.47;1.50;;;;;;;;;;4997815;28;20054;-74
2022/02/09 08:32:56;;;;;;;9.90;1.55;;;;;;;;;;4999302;28;20062;-70
2022/02/09 08:35:22;;;;;;;8.55;1.73;;;;;;;;;;4995531;28;20034;-72
2022/02/09 08:37:48;;;;;;;5.47;1.35;;;;;;;;;;4995429;28;20038;-68
2022/02/09 08:40:18;;;;;;;7.47;1.85;;;;;;;;;;4995570;28;20038;-72
2022/02/09 08:42:44;;;;;;;5.88;1.40;;;;;;;;;;4995328;28;20726;-74
2022/02/09 08:45:10;;;;;;;5.97;1.60;;;;;;;;;;4995014;28;20027;-72
2022/02/09 08:47:36;;;;;;;6.60;1.70;;;;;;;;;;4994436;28;20103;-73
2022/02/09 08:50:04;;;;;;;5.13;1.40;;;;;;;;;;4995095;28;20581;-68
2022/02/09 08:52:30;;;;;;;9.63;1.58;;;;;;;;;;4975645;28;20430;-69
2022/02/09 08:54:57;;;;;;;8.15;1.52;;;;;;;;;;4975733;28;20470;-69
2022/02/09 08:57:24;;;;;;;8.95;1.50;;;;;;;;;;4976166;28;20027;-71
2022/02/09 08:59:51;;;;;;;3.78;1.73;;;;;;;;;;4975408;28;20489;-74
2022/02/09 09:02:20;;;;;;;4.82;1.48;;;;;;;;;;4974023;28;20109;-65
2022/02/09 09:04:51;;;;;;;5.30;1.40;;;;;;;;;;4966104;28;20031;-74
2022/02/09 09:07:30;;;;;;;3.88;1.20;;;;;;;;;;4975548;28;20054;-66
2022/02/09 09:18:54;;;;;;;11.48;1.58;;;;;;;;;;4975281;28;20145;-74
2022/02/09 10:00:52;;;;;;;6.53;1.85;;;;;;;;;;4954678;28;20391;-73
2022/02/09 10:02:52;;;;;;;9.27;2.33;;;;;;;;;;4957600;28;20406;-70
2022/02/09 10:33:53;;;;;;;26.20;2.47;;;;;;;;;;4955016;29;20606;-71
2022/02/09 10:36:20;;;;;;;12.27;2.42;;;;;;;;;;4960114;28;20022;-66
2022/02/09 10:38:48;;;;;;;13.13;2.30;;;;;;;;;;4965961;28;20033;-72
2022/02/09 10:41:36;;;;;;;8.32;2.17;;;;;;;;;;4956657;28;20038;-67
2022/02/09 10:44:06;;;;;;;6.85;2.10;;;;;;;;;;4957722;28;20414;-68
2022/02/09 10:46:32;;;;;;;18.02;2.83;;;;;;;;;;4966852;28;20023;-71
2022/02/09 10:49:00;;;;;;;12.10;2.30;;;;;;;;;;4965887;28;20027;-71
2022/02/09 10:51:44;;;;;;;8.63;2.33;;;;;;;;;;4964982;28;20118;-72
2022/02/09 10:54:10;;;;;;;18.92;2.42;;;;;;;;;;4967128;28;20027;-72
2022/02/09 10:56:37;;;;;;;8.85;2.60;;;;;;;;;;4950887;29;20386;-68
2022/02/09 10:59:04;;;;;;;6.78;2.63;;;;;;;;;;4942762;28;20019;-68
2022/02/09 11:01:30;;;;;;;8.70;2.80;;;;;;;;;;4974227;28;20023;-68
2022/02/09 11:03:58;;;;;;;8.38;2.10;;;;;;;;;;4962743;28;20086;-67
2022/02/09 11:06:34;;;;;;;16.27;2.40;;;;;;;;;;4966229;28;20031;-68
2022/02/09 11:09:01;;;;;;;7.85;2.35;;;;;;;;;;4965879;28;20015;-67
2022/02/09 11:11:29;;;;;;;8.90;1.92;;;;;;;;;;4973671;28;20034;-67
2022/02/09 11:13:55;;;;;;;13.68;2.30;;;;;;;;;;4945777;29;20074;-68
2022/02/09 11:16:23;;;;;;;9.30;1.95;;;;;;;;;;4970272;28;20030;-68
2022/02/09 11:18:50;;;;;;;10.45;2.47;;;;;;;;;;4972550;28;20019;-68
2022/02/09 11:21:16;;;;;;;11.77;2.10;;;;;;;;;;4973179;28;20541;-67
2022/02/09 11:23:46;;;;;;;6.53;2.20;;;;;;;;;;4971875;28;20022;-68
2022/02/09 11:26:34;;;;;;;9.95;1.98;;;;;;;;;;4973256;28;20051;-68
2022/02/09 11:34:51;;;;;;;15.82;2.28;;;;;;;;;;4973820;28;20059;-73
2022/02/09 11:37:28;;;;;;;7.38;2.60;;;;;;;;;;4966589;28;20018;-74
2022/02/09 11:39:58;;;;;;;6.32;2.17;;;;;;;;;;4993115;28;20073;-72
2022/02/09 11:42:40;;;;;;;7.18;2.05;;;;;;;;;;4992757;28;20421;-73
2022/02/09 11:45:37;;;;;;;11.20;2.10;;;;;;;;;;4992934;28;20102;-73
2022/02/09 12:10:26;;;;;;;5.25;2.05;;;;;;;;;;4972784;28;20074;-69
2022/02/09 12:12:58;;;;;;;3.58;2.30;;;;;;;;;;4976959;28;20032;-78
2022/02/09 12:16:10;;;;;;;6.25;2.30;;;;;;;;;;4959430;28;20084;-74
2022/02/09 12:18:39;;;;;;;10.57;2.58;;;;;;;;;;4959455;28;20463;-76
2022/02/09 12:21:16;;;;;;;10.25;2.83;;;;;;;;;;4959142;28;20018;-77
2022/02/09 12:23:45;;;;;;;7.07;2.38;;;;;;;;;;4959495;28;20027;-73
2022/02/09 12:26:12;;;;;;;11.48;2.55;;;;;;;;;;4975311;28;20022;-73
2022/02/09 12:28:40;;;;;;;24.52;2.75;;;;;;;;;;4974599;28;20022;-73
2022/02/09 12:31:10;;;;;;;10.65;2.58;;;;;;;;;;4976346;28;20026;-73
2022/02/09 12:33:43;;;;;;;14.00;2.53;;;;;;;;;;4976166;28;20022;-76
2022/02/09 12:36:10;;;;;;;5.85;2.25;;;;;;;;;;4959268;28;20038;-76
2022/02/09 12:38:36;;;;;;;8.25;2.42;;;;;;;;;;4976325;28;20022;-76
2022/02/09 12:41:13;;;;;;;15.13;2.75;;;;;;;;;;4960395;28;20039;-66
2022/02/09 12:43:54;;;;;;;10.07;2.58;;;;;;;;;;4974392;28;20102;-75
2022/02/09 12:46:21;;;;;;;7.18;2.30;;;;;;;;;;4976172;28;20019;-68
2022/02/09 12:48:48;;;;;;;11.40;2.65;;;;;;;;;;4976194;28;20106;-70
2022/02/09 12:51:21;;;;;;;4.45;2.45;;;;;;;;;;4977086;28;20113;-77
2022/02/09 12:53:48;;;;;;;7.63;2.47;;;;;;;;;;4977909;28;20121;-84
2022/02/09 12:56:21;;;;;;;12.38;2.15;;;;;;;;;;4978584;28;20403;-73
2022/02/09 12:59:00;;;;;;;8.77;2.38;;;;;;;;;;4978978;28;20022;-66
2022/02/09 13:01:27;;;;;;;12.05;2.47;;;;;;;;;;4972235;28;20035;-67
2022/02/09 13:03:53;;;;;;;12.10;2.88;;;;;;;;;;4975570;28;20031;-69
2022/02/09 13:06:19;;;;;;;11.93;2.80;;;;;;;;;;4975587;28;20050;-67
2022/02/09 13:08:52;;;;;;;7.75;2.50;;;;;;;;;;4974384;28;20039;-71
2022/02/09 13:13:53;;;;;;;12.90;2.50;;;;;;;;;;4967911;28;20026;-67
2022/02/09 13:16:53;;;;;;;14.40;2.65;;;;;;;;;;4964546;28;20106;-69
2022/02/09 13:19:39;;;;;;;9.70;2.50;;;;;;;;;;4969229;28;20027;-68
2022/02/09 14:04:52;;;;;;;12.93;2.60;;;;;;;;;;4965988;28;20117;-79
2022/02/09 14:17:47;;;;;;;15.45;2.95;;;;;;;;;;4958032;28;20071;-73
2022/02/09 14:34:48;;;;;;;38.67;4.70;;;;;;;;;;4962044;28;20090;-68
2022/02/09 14:53:11;;;;;;;15.35;3.65;;;;;;;;;;4970352;28;20053;-71
2022/02/09 14:55:50;;;;;;;18.98;4.85;;;;;;;;;;4966758;28;20026;-68
2022/02/09 14:58:23;;;;;;;15.18;4.47;;;;;;;;;;4961679;28;20430;-68
2022/02/09 15:00:57;;;;;;;14.40;4.28;;;;;;;;;;4966698;28;20041;-67
2022/02/09 15:06:25;;;;;;;16.90;4.53;;;;;;;;;;4959842;28;20482;-71
2022/02/09 15:09:37;;;;;;;15.98;4.00;;;;;;;;;;4962230;28;20542;-68
2022/02/09 15:11:55;;;;;;;20.95;3.78;;;;;;;;;;4961672;28;20133;-64
2022/02/09 15:17:27;;;;;;;19.58;3.88;;;;;;;;;;4954583;29;20462;-71
2022/02/09 15:20:08;;;;;;;15.82;4.38;;;;;;;;;;4954196;28;20082;-72
2022/02/09 15:22:37;;;;;;;;;;;;;;;;;;4968232;28;20050;-70
2022/02/09 15:25:11;;;;;;;18.85;3.25;;;;;;;;;;4973919;28;19910;-70
2022/02/09 15:27:37;;;;;;;12.93;3.28;;;;;;;;;;4971282;28;20027;-71
2022/02/09 15:30:04;;;;;;;11.15;3.30;;;;;;;;;;4973551;28;20386;-71
2022/02/09 15:32:35;;;;;;;10.57;3.50;;;;;;;;;;4956028;28;20031;-69
2022/02/09 15:35:13;;;;;;;9.70;2.83;;;;;;;;;;4962147;28;20071;-71
2022/02/09 15:37:59;;;;;;;7.00;2.97;;;;;;;;;;4959077;28;20126;-71
2022/02/09 15:40:44;;;;;;;15.70;3.42;;;;;;;;;;4957999;28;20400;-72
2022/02/09 15:43:38;;;;;;;9.63;3.13;;;;;;;;;;4957777;29;20026;-71
2022/02/09 15:57:29;;;;;;;9.05;2.30;;;;;;;;;;4986078;28;20549;-72
2022/02/09 16:19:31;;;;;;;8.10;2.30;;;;;;;;;;4990285;28;20137;-73
2022/02/09 16:24:25;;;;;;;5.47;2.30;;;;;;;;;;4984043;28;20484;-68
2022/02/09 16:38:06;;;;;;;10.07;2.92;;;;;;;;;;4993814;28;20073;-67
2022/02/09 16:48:27;;;;;;;6.68;2.45;;;;;;;;;;4980609;28;20031;-69
2022/02/09 16:50:54;;;;;;;4.80;2.30;;;;;;;;;;4981704;28;20074;-69
2022/02/09 17:19:43;;;;;;;17.00;3.60;;;;;;;;;;4995652;28;20033;-70
2022/02/09 17:22:10;;;;;;;9.55;3.10;;;;;;;;;;4994895;28;20486;-73
2022/02/09 17:24:37;;;;;;;18.42;3.50;;;;;;;;;;4997389;28;20034;-70
2022/02/09 17:27:05;;;;;;;18.48;3.80;;;;;;;;;;5008883;28;20031;-70
2022/02/09 17:29:53;;;;;;;10.32;3.75;;;;;;;;;;4983661;28;20110;-70
2022/02/09 17:35:30;;;;;;;11.15;3.20;;;;;;;;;;4954102;28;20026;-71
2022/02/09 17:57:00;;;;;;;15.60;2.88;;;;;;;;;;4960993;28;20039;-67
2022/02/09 17:59:30;;;;;;;7.72;2.65;;;;;;;;;;4963385;28;20077;-66
2022/02/09 18:01:56;;;;;;;9.98;2.50;;;;;;;;;;4962524;28;20390;-72
2022/02/09 18:04:23;;;;;;;13.73;2.65;;;;;;;;;;4965769;28;20399;-68
2022/02/09 18:07:13;;;;;;;6.40;2.67;;;;;;;;;;4964498;28;20525;-67
2022/02/09 18:09:44;;;;;;;5.53;2.40;;;;;;;;;;4965372;28;20068;-71
2022/02/09 18:12:37;;;;;;;6.68;2.53;;;;;;;;;;4970595;28;20043;-71
2022/02/09 18:15:26;;;;;;;19.10;2.67;;;;;;;;;;4971705;28;20030;-71
2022/02/09 18:29:07;;;;;;;16.77;3.17;;;;;;;;;;4973652;28;20035;-73
2022/02/09 18:32:05;;;;;;;15.85;2.60;;;;;;;;;;4966660;28;20051;-74
2022/02/09 18:47:48;;;;;;;32.05;3.72;;;;;;;;;;4962647;28;20042;-71
2022/02/09 19:01:15;;;;;;;18.60;3.33;;;;;;;;;;4970783;28;20054;-69
2022/02/09 19:03:53;;;;;;;40.10;3.47;;;;;;;;;;4968194;28;20399;-70
2022/02/09 19:06:26;;;;;;;29.90;3.33;;;;;;;;;;4965412;28;20038;-70
2022/02/09 19:09:01;;;;;;;;;;;;;;;;;;4966901;28;20545;-70
2022/02/09 19:14:27;;;;;;;11.73;3.03;;;;;;;;;;4962717;28;20501;-70
2022/02/09 19:19:59;;;;;;;16.63;3.15;;;;;;;;;;4943831;28;20023;-69
2022/02/09 19:49:01;;;;;;;8.55;2.30;;;;;;;;;;4968340;28;20027;-72
2022/02/09 19:56:28;;;;;;;6.55;2.30;;;;;;;;;;4986484;28;20077;-68
2022/02/09 19:58:59;;;;;;;15.93;2.83;;;;;;;;;;4995227;28;20036;-67
2022/02/09 20:01:33;;;;;;;12.13;2.78;;;;;;;;;;4995267;28;20042;-68
2022/02/09 20:03:59;;;;;;;13.27;2.50;;;;;;;;;;4977089;28;20067;-68
2022/02/09 20:06:25;;;;;;;9.27;2.53;;;;;;;;;;4976542;28;20218;-68
2022/02/09 20:08:51;;;;;;;11.07;2.60;;;;;;;;;;4975582;28;20023;-69
2022/02/09 20:11:18;;;;;;;8.93;2.58;;;;;;;;;;4976203;28;20050;-68
2022/02/09 20:13:46;;;;;;;11.98;2.50;;;;;;;;;;4975440;28;20443;-70
2022/02/09 20:16:12;;;;;;;7.32;2.50;;;;;;;;;;4983816;28;20034;-69
2022/02/09 20:18:38;;;;;;;7.57;2.60;;;;;;;;;;4990667;28;20465;-68
2022/02/09 20:21:05;;;;;;;27.42;2.17;;;;;;;;;;4994431;28;20034;-68
2022/02/09 20:23:33;;;;;;;6.68;2.65;;;;;;;;;;4995759;28;20026;-70
2022/02/09 20:26:03;;;;;;;7.60;2.17;;;;;;;;;;5009669;28;20069;-68
2022/02/09 20:28:28;;;;;;;6.82;2.55;;;;;;;;;;4992974;28;20377;-69
2022/02/09 20:31:03;;;;;;;9.18;2.33;;;;;;;;;;4986661;28;20089;-69
2022/02/09 20:33:36;;;;;;;7.78;2.17;;;;;;;;;;4984601;28;20026;-68
2022/02/09 20:36:05;;;;;;;7.45;2.33;;;;;;;;;;4989766;28;20042;-68
2022/02/09 20:38:32;;;;;;;9.32;2.13;;;;;;;;;;4995437;28;20026;-68
2022/02/09 20:41:03;;;;;;;6.95;2.28;;;;;;;;;;4993906;28;20022;-69
2022/02/09 20:43:31;;;;;;;8.27;2.83;;;;;;;;;;4995683;28;20092;-67
2022/02/09 20:46:02;;;;;;;11.75;2.85;;;;;;;;;;4995634;28;20033;-68
2022/02/09 20:48:28;;;;;;;9.40;2.35;;;;;;;;;;4995150;28;20030;-68
2022/02/09 20:50:56;;;;;;;8.45;2.28;;;;;;;;;;4994083;28;20860;-69
2022/02/09 20:53:22;;;;;;;5.88;2.42;;;;;;;;;;5014954;28;20525;-68
2022/02/09 20:55:48;;;;;;;7.05;2.20;;;;;;;;;;4996996;28;20389;-67
2022/02/09 20:58:16;;;;;;;8.55;2.55;;;;;;;;;;5014642;28;20050;-68
2022/02/09 21:00:54;;;;;;;7.80;2.40;;;;;;;;;;5014627;28;20029;-68
2022/02/09 21:10:51;;;;;;;9.80;2.88;;;;;;;;;;5013811;28;20041;-68
2022/02/09 21:21:03;;;;;;;18.63;2.13;;;;;;;;;;4994756;28;20034;-67
2022/02/09 21:55:23;;;;;;;8.18;2.10;;;;;;;;;;4993973;28;20478;-68
2022/02/09 22:19:17;;;;;;;6.32;2.35;;;;;;;;;;4974073;28;20038;-68
2022/02/09 22:20:09;;;;;;;8.32;2.80;;;;;;;;;;4973111;28;20500;-68
2022/02/09 22:22:51;;;;;;;6.63;2.60;;;;;;;;;;4973664;28;20085;-68
2022/02/09 22:28:28;;;;;;;8.45;2.78;;;;;;;;;;4973945;28;20029;-68
2022/02/09 22:49:50;;;;;;;7.57;2.50;;;;;;;;;;4973502;28;20070;-67
2022/02/09 22:55:05;;;;;;;6.75;2.80;;;;;;;;;;4973538;28;20085;-67
2022/02/09 23:03:37;;;;;;;6.43;2.53;;;;;;;;;;4973699;28;20047;-67
2022/02/09 23:08:57;;;;;;;7.93;2.90;;;;;;;;;;4973873;28;20054;-68
2022/02/09 23:22:18;;;;;;;6.00;2.88;;;;;;;;;;4973406;28;20066;-67
2022/02/09 23:25:17;;;;;;;7.00;2.70;;;;;;;;;;4973053;28;20042;-68
